sensor_id;sensor_type;location;lat;lon;timestamp;temperature;humidity
55054;DHT22;40954;45.668;18.980;2022-12-07T07:15:53;154.10;2252.80
55054;DHT22;40954;45.668;18.980;2022-12-07T07:18:19;153.90;2252.80
55054;DHT22;40954;45.668;18.980;2022-12-07T07:20:45;153.90;2252.80
55054;DHT22;40954;45.668;18.980;2022-12-07T07:23:11;153.80;2252.80
55054;DHT22;40954;45.668;18.980;2022-12-07T07:25:36;153.90;2252.80
55054;DHT22;40954;45.668;18.980;2022-12-07T07:28:02;154.00;2252.80
55054;DHT22;40954;45.668;18.980;2022-12-07T07:30:28;154.00;2252.80
55054;DHT22;40954;45.668;18.980;2022-12-07T07:33:01;154.10;2252.80
55054;DHT22;40954;45.668;18.980;2022-12-07T07:35:28;154.10;2252.80
55054;DHT22;40954;45.668;18.980;2022-12-07T07:37:54;154.20;2252.80
55054;DHT22;40954;45.668;18.980;2022-12-07T07:40:20;154.30;2252.80
55054;DHT22;40954;45.668;18.980;2022-12-07T07:42:50;154.30;2252.80
55054;DHT22;40954;45.668;18.980;2022-12-07T07:45:17;154.30;2252.80
55054;DHT22;40954;45.668;18.980;2022-12-07T07:47:43;154.40;2252.80
55054;DHT22;40954;45.668;18.980;2022-12-07T07:50:09;179.20;2252.80
55054;DHT22;40954;45.668;18.980;2022-12-07T07:52:34;179.40;2252.80
55054;DHT22;40954;45.668;18.980;2022-12-07T07:55:00;179.40;2252.80
55054;DHT22;40954;45.668;18.980;2022-12-07T07:57:26;179.30;2252.80
55054;DHT22;40954;45.668;18.980;2022-12-07T07:59:52;179.30;2252.80
55054;DHT22;40954;45.668;18.980;2022-12-07T08:02:19;179.20;2252.80
55054;DHT22;40954;45.668;18.980;2022-12-07T08:04:45;179.40;2252.80
55054;DHT22;40954;45.668;18.980;2022-12-07T08:07:12;179.50;2252.80
55054;DHT22;40954;45.668;18.980;2022-12-07T08:09:38;179.30;2252.80
55054;DHT22;40954;45.668;18.980;2022-12-07T08:12:05;179.40;2252.80
55054;DHT22;40954;45.668;18.980;2022-12-07T08:14:31;179.40;2252.80
55054;DHT22;40954;45.668;18.980;2022-12-07T08:16:56;179.60;2252.80
55054;DHT22;40954;45.668;18.980;2022-12-07T08:19:23;179.80;2252.80
55054;DHT22;40954;45.668;18.980;2022-12-07T08:21:49;179.70;2252.80
55054;DHT22;40954;45.668;18.980;2022-12-07T08:24:14;179.80;2252.80
55054;DHT22;40954;45.668;18.980;2022-12-07T08:26:41;179.90;2252.80
55054;DHT22;40954;45.668;18.980;2022-12-07T08:29:07;179.90;2252.80
55054;DHT22;40954;45.668;18.980;2022-12-07T08:31:32;180.00;2252.80
55054;DHT22;40954;45.668;18.980;2022-12-07T08:33:58;179.70;2252.80
55054;DHT22;40954;45.668;18.980;2022-12-07T08:36:24;179.70;2252.80
55054;DHT22;40954;45.668;18.980;2022-12-07T08:38:50;179.70;2252.80
55054;DHT22;40954;45.668;18.980;2022-12-07T08:41:16;179.70;2252.80
55054;DHT22;40954;45.668;18.980;2022-12-07T08:43:42;179.90;2252.80
55054;DHT22;40954;45.668;18.980;2022-12-07T10:45:29;281.60;2278.40
55054;DHT22;40954;45.668;18.980;2022-12-07T12:17:09;256.90;2252.80
55054;DHT22;40954;45.668;18.980;2022-12-07T12:22:39;256.90;2252.80
55054;DHT22;40954;45.668;18.980;2022-12-07T12:25:13;256.90;2252.80
55054;DHT22;40954;45.668;18.980;2022-12-07T12:27:46;256.70;2252.80
55054;DHT22;40954;45.668;18.980;2022-12-07T12:33:15;256.30;2252.80
55054;DHT22;40954;45.668;18.980;2022-12-07T12:35:43;256.20;2252.80
55054;DHT22;40954;45.668;18.980;2022-12-07T12:38:32;256.10;2252.80
55054;DHT22;40954;45.668;18.980;2022-12-07T12:41:00;256.10;2252.80
55054;DHT22;40954;45.668;18.980;2022-12-07T12:43:47;256.00;2252.80
55054;DHT22;40954;45.668;18.980;2022-12-07T12:54:23;231.10;2252.80
55054;DHT22;40954;45.668;18.980;2022-12-07T13:00:01;230.90;2252.80
55054;DHT22;40954;45.668;18.980;2022-12-07T13:15:45;230.70;2252.80
55054;DHT22;40954;45.668;18.980;2022-12-07T13:21:39;230.70;2252.80
55054;DHT22;40954;45.668;18.980;2022-12-07T13:34:35;230.80;2252.80
55054;DHT22;40954;45.668;18.980;2022-12-07T13:39:48;231.00;2252.80
55054;DHT22;40954;45.668;18.980;2022-12-07T13:42:34;231.00;2252.80
55054;DHT22;40954;45.668;18.980;2022-12-07T13:45:21;230.90;2252.80
55054;DHT22;40954;45.668;18.980;2022-12-07T13:47:52;230.80;2252.80
55054;DHT22;40954;45.668;18.980;2022-12-07T13:50:27;230.80;2252.80
55054;DHT22;40954;45.668;18.980;2022-12-07T13:52:57;230.80;2252.80
55054;DHT22;40954;45.668;18.980;2022-12-07T13:55:23;230.70;2252.80
55054;DHT22;40954;45.668;18.980;2022-12-07T13:57:51;230.70;2252.80
55054;DHT22;40954;45.668;18.980;2022-12-07T14:00:21;230.70;2252.80
55054;DHT22;40954;45.668;18.980;2022-12-07T14:05:30;230.80;2252.80
55054;DHT22;40954;45.668;18.980;2022-12-07T14:08:00;230.80;2252.80
55054;DHT22;40954;45.668;18.980;2022-12-07T14:12:54;230.80;2252.80
55054;DHT22;40954;45.668;18.980;2022-12-07T14:15:27;230.80;2252.80
55054;DHT22;40954;45.668;18.980;2022-12-07T14:17:55;230.80;2252.80
55054;DHT22;40954;45.668;18.980;2022-12-07T14:20:40;230.80;2252.80
55054;DHT22;40954;45.668;18.980;2022-12-07T14:23:23;230.70;2252.80
55054;DHT22;40954;45.668;18.980;2022-12-07T14:25:52;230.70;2252.80
55054;DHT22;40954;45.668;18.980;2022-12-07T14:28:28;230.80;2252.80
55054;DHT22;40954;45.668;18.980;2022-12-07T14:30:54;230.70;2252.80
55054;DHT22;40954;45.668;18.980;2022-12-07T14:33:21;230.70;2252.80
55054;DHT22;40954;45.668;18.980;2022-12-07T14:35:47;230.70;2252.80
55054;DHT22;40954;45.668;18.980;2022-12-07T14:38:14;230.50;2252.80
55054;DHT22;40954;45.668;18.980;2022-12-07T14:40:40;230.60;2252.80
55054;DHT22;40954;45.668;18.980;2022-12-07T14:43:10;230.50;2252.80
55054;DHT22;40954;45.668;18.980;2022-12-07T14:45:37;230.50;2252.80
55054;DHT22;40954;45.668;18.980;2022-12-07T14:48:05;230.50;2252.80
55054;DHT22;40954;45.668;18.980;2022-12-07T14:50:35;230.50;2252.80
55054;DHT22;40954;45.668;18.980;2022-12-07T14:55:37;230.50;2252.80
55054;DHT22;40954;45.668;18.980;2022-12-07T14:58:03;230.40;2252.80
55054;DHT22;40954;45.668;18.980;2022-12-07T15:00:29;230.40;2252.80
55054;DHT22;40954;45.668;18.980;2022-12-07T15:02:56;205.70;2252.80
55054;DHT22;40954;45.668;18.980;2022-12-07T15:05:21;205.70;2252.80
55054;DHT22;40954;45.668;18.980;2022-12-07T15:07:48;205.70;2252.80
55054;DHT22;40954;45.668;18.980;2022-12-07T15:10:23;205.70;2252.80
55054;DHT22;40954;45.668;18.980;2022-12-07T15:12:54;205.60;2252.80
55054;DHT22;40954;45.668;18.980;2022-12-07T15:15:20;205.60;2252.80
55054;DHT22;40954;45.668;18.980;2022-12-07T15:17:46;205.70;2252.80
55054;DHT22;40954;45.668;18.980;2022-12-07T15:20:13;205.50;2252.80
55054;DHT22;40954;45.668;18.980;2022-12-07T15:22:40;205.50;2252.80
55054;DHT22;40954;45.668;18.980;2022-12-07T15:25:06;205.40;2252.80
55054;DHT22;40954;45.668;18.980;2022-12-07T15:27:31;205.30;2252.80
55054;DHT22;40954;45.668;18.980;2022-12-07T15:29:57;205.30;2252.80
55054;DHT22;40954;45.668;18.980;2022-12-07T15:32:23;205.30;2252.80
55054;DHT22;40954;45.668;18.980;2022-12-07T15:34:49;205.20;2252.80
55054;DHT22;40954;45.668;18.980;2022-12-07T15:37:15;205.20;2252.80
55054;DHT22;40954;45.668;18.980;2022-12-07T15:39:41;205.20;2252.80
55054;DHT22;40954;45.668;18.980;2022-12-07T15:42:07;205.20;2252.80
55054;DHT22;40954;45.668;18.980;2022-12-07T15:44:33;205.30;2252.80
55054;DHT22;40954;45.668;18.980;2022-12-07T15:47:17;205.20;2252.80
55054;DHT22;40954;45.668;18.980;2022-12-07T15:49:43;205.20;2252.80
55054;DHT22;40954;45.668;18.980;2022-12-07T15:52:09;205.20;2252.80
55054;DHT22;40954;45.668;18.980;2022-12-07T15:54:34;205.20;2252.80
55054;DHT22;40954;45.668;18.980;2022-12-07T15:57:00;205.10;2252.80
55054;DHT22;40954;45.668;18.980;2022-12-07T15:59:27;205.20;2252.80
55054;DHT22;40954;45.668;18.980;2022-12-07T16:01:53;205.20;2252.80
55054;DHT22;40954;45.668;18.980;2022-12-07T16:04:19;205.10;2252.80
55054;DHT22;40954;45.668;18.980;2022-12-07T16:06:45;205.10;2252.80
55054;DHT22;40954;45.668;18.980;2022-12-07T16:09:14;205.10;2252.80
55054;DHT22;40954;45.668;18.980;2022-12-07T16:11:40;205.20;2252.80
55054;DHT22;40954;45.668;18.980;2022-12-07T16:14:06;205.10;2252.80
55054;DHT22;40954;45.668;18.980;2022-12-07T16:16:31;205.30;2252.80
55054;DHT22;40954;45.668;18.980;2022-12-07T16:18:57;205.20;2252.80
55054;DHT22;40954;45.668;18.980;2022-12-07T16:21:23;205.20;2252.80
55054;DHT22;40954;45.668;18.980;2022-12-07T16:23:49;205.20;2252.80
55054;DHT22;40954;45.668;18.980;2022-12-07T16:26:17;205.30;2252.80
55054;DHT22;40954;45.668;18.980;2022-12-07T16:28:44;205.20;2252.80
55054;DHT22;40954;45.668;18.980;2022-12-07T16:31:12;205.20;2252.80
55054;DHT22;40954;45.668;18.980;2022-12-07T16:33:39;205.20;2252.80
55054;DHT22;40954;45.668;18.980;2022-12-07T16:36:07;205.10;2252.80
55054;DHT22;40954;45.668;18.980;2022-12-07T16:38:34;205.20;2252.80
55054;DHT22;40954;45.668;18.980;2022-12-07T16:41:00;205.10;2252.80
55054;DHT22;40954;45.668;18.980;2022-12-07T16:43:26;205.10;2252.80
55054;DHT22;40954;45.668;18.980;2022-12-07T16:45:52;205.20;2252.80
55054;DHT22;40954;45.668;18.980;2022-12-07T16:48:18;205.00;2252.80
55054;DHT22;40954;45.668;18.980;2022-12-07T16:50:45;205.00;2252.80
55054;DHT22;40954;45.668;18.980;2022-12-07T16:53:12;205.00;2252.80
55054;DHT22;40954;45.668;18.980;2022-12-07T16:55:42;205.10;2252.80
55054;DHT22;40954;45.668;18.980;2022-12-07T16:58:10;205.10;2252.80
55054;DHT22;40954;45.668;18.980;2022-12-07T17:00:37;205.10;2252.80
55054;DHT22;40954;45.668;18.980;2022-12-07T17:03:03;205.10;2252.80
55054;DHT22;40954;45.668;18.980;2022-12-07T17:05:29;205.20;2252.80
55054;DHT22;40954;45.668;18.980;2022-12-07T17:07:56;205.20;2252.80
55054;DHT22;40954;45.668;18.980;2022-12-07T17:10:23;205.10;2252.80
55054;DHT22;40954;45.668;18.980;2022-12-07T17:12:50;205.00;2252.80
55054;DHT22;40954;45.668;18.980;2022-12-07T17:15:16;205.10;2252.80
55054;DHT22;40954;45.668;18.980;2022-12-07T17:17:45;205.10;2252.80
55054;DHT22;40954;45.668;18.980;2022-12-07T17:20:13;205.00;2252.80
55054;DHT22;40954;45.668;18.980;2022-12-07T17:22:39;205.00;2252.80
55054;DHT22;40954;45.668;18.980;2022-12-07T17:25:05;205.00;2252.80
55054;DHT22;40954;45.668;18.980;2022-12-07T17:27:32;205.00;2252.80
55054;DHT22;40954;45.668;18.980;2022-12-07T17:29:57;205.00;2252.80
55054;DHT22;40954;45.668;18.980;2022-12-07T17:32:23;205.00;2252.80
55054;DHT22;40954;45.668;18.980;2022-12-07T17:34:49;205.00;2252.80
55054;DHT22;40954;45.668;18.980;2022-12-07T17:37:14;205.10;2252.80
55054;DHT22;40954;45.668;18.980;2022-12-07T17:39:40;205.00;2252.80
55054;DHT22;40954;45.668;18.980;2022-12-07T17:42:06;205.10;2252.80
55054;DHT22;40954;45.668;18.980;2022-12-07T17:44:50;205.00;2252.80
55054;DHT22;40954;45.668;18.980;2022-12-07T17:47:15;205.00;2252.80
55054;DHT22;40954;45.668;18.980;2022-12-07T17:49:43;205.00;2252.80
55054;DHT22;40954;45.668;18.980;2022-12-07T17:52:11;205.00;2252.80
55054;DHT22;40954;45.668;18.980;2022-12-07T17:54:55;205.10;2252.80
55054;DHT22;40954;45.668;18.980;2022-12-07T17:57:21;205.00;2252.80
55054;DHT22;40954;45.668;18.980;2022-12-07T17:59:47;204.90;2252.80
55054;DHT22;40954;45.668;18.980;2022-12-07T18:02:13;204.90;2252.80
55054;DHT22;40954;45.668;18.980;2022-12-07T18:04:38;204.90;2252.80
55054;DHT22;40954;45.668;18.980;2022-12-07T18:07:06;204.90;2252.80
55054;DHT22;40954;45.668;18.980;2022-12-07T18:09:33;204.90;2252.80
55054;DHT22;40954;45.668;18.980;2022-12-07T18:11:59;204.90;2252.80
55054;DHT22;40954;45.668;18.980;2022-12-07T18:14:25;204.80;2252.80
55054;DHT22;40954;45.668;18.980;2022-12-07T18:16:50;204.90;2252.80
55054;DHT22;40954;45.668;18.980;2022-12-07T18:19:16;204.80;2252.80
55054;DHT22;40954;45.668;18.980;2022-12-07T18:21:42;204.80;2252.80
55054;DHT22;40954;45.668;18.980;2022-12-07T18:24:13;204.80;2252.80
55054;DHT22;40954;45.668;18.980;2022-12-07T18:26:40;204.80;2252.80
55054;DHT22;40954;45.668;18.980;2022-12-07T18:29:07;204.80;2252.80
55054;DHT22;40954;45.668;18.980;2022-12-07T18:31:33;204.80;2252.80
55054;DHT22;40954;45.668;18.980;2022-12-07T18:34:04;204.80;2252.80
55054;DHT22;40954;45.668;18.980;2022-12-07T18:36:33;204.80;2252.80
55054;DHT22;40954;45.668;18.980;2022-12-07T18:38:59;204.80;2252.80
